sensor_id;sensor_type;location;lat;lon;timestamp;pressure;altitude;pressure_sealevel;temperature;humidity
59063;BME280;44851;45.648;9.004;2023-04-22T00:00:05;98895.44;;;11.33;65.53
59063;BME280;44851;45.648;9.004;2023-04-22T00:02:33;98905.22;;;11.31;65.66
59063;BME280;44851;45.648;9.004;2023-04-22T00:05:01;98897.22;;;11.33;65.52
59063;BME280;44851;45.648;9.004;2023-04-22T00:07:27;98895.75;;;11.30;65.09
59063;BME280;44851;45.648;9.004;2023-04-22T00:09:53;98900.38;;;11.36;65.75
59063;BME280;44851;45.648;9.004;2023-04-22T00:12:18;98900.00;;;11.31;64.97
59063;BME280;44851;45.648;9.004;2023-04-22T00:14:44;98900.66;;;11.33;65.02
59063;BME280;44851;45.648;9.004;2023-04-22T00:17:09;98903.19;;;11.25;64.90
59063;BME280;44851;45.648;9.004;2023-04-22T00:19:35;98896.56;;;11.31;65.12
59063;BME280;44851;45.648;9.004;2023-04-22T00:22:02;98900.16;;;11.30;64.95
59063;BME280;44851;45.648;9.004;2023-04-22T00:24:28;98902.06;;;11.28;64.56
59063;BME280;44851;45.648;9.004;2023-04-22T00:26:53;98907.06;;;11.21;64.75
59063;BME280;44851;45.648;9.004;2023-04-22T00:29:19;98902.81;;;11.20;65.89
59063;BME280;44851;45.648;9.004;2023-04-22T00:31:44;98902.13;;;11.18;65.08
59063;BME280;44851;45.648;9.004;2023-04-22T00:34:10;98903.25;;;11.16;65.49
59063;BME280;44851;45.648;9.004;2023-04-22T00:36:35;98898.56;;;11.19;66.17
59063;BME280;44851;45.648;9.004;2023-04-22T00:39:00;98893.63;;;11.16;65.54
59063;BME280;44851;45.648;9.004;2023-04-22T00:41:26;98898.31;;;11.12;65.54
59063;BME280;44851;45.648;9.004;2023-04-22T00:43:52;98894.16;;;11.20;65.91
59063;BME280;44851;45.648;9.004;2023-04-22T00:46:19;98884.31;;;11.13;65.35
59063;BME280;44851;45.648;9.004;2023-04-22T00:48:45;98899.13;;;11.13;65.48
59063;BME280;44851;45.648;9.004;2023-04-22T00:51:10;98889.59;;;11.04;66.07
59063;BME280;44851;45.648;9.004;2023-04-22T00:53:36;98886.00;;;11.05;66.15
59063;BME280;44851;45.648;9.004;2023-04-22T00:56:02;98888.88;;;11.02;65.65
59063;BME280;44851;45.648;9.004;2023-04-22T00:58:28;98887.91;;;11.03;66.06
59063;BME280;44851;45.648;9.004;2023-04-22T01:00:54;98888.22;;;11.00;65.50
59063;BME280;44851;45.648;9.004;2023-04-22T01:03:20;98879.53;;;11.09;66.17
59063;BME280;44851;45.648;9.004;2023-04-22T01:05:50;98880.00;;;10.95;65.13
59063;BME280;44851;45.648;9.004;2023-04-22T01:08:16;98880.00;;;10.95;65.96
59063;BME280;44851;45.648;9.004;2023-04-22T01:10:42;98873.94;;;11.04;66.41
59063;BME280;44851;45.648;9.004;2023-04-22T01:13:08;98875.19;;;11.00;66.26
59063;BME280;44851;45.648;9.004;2023-04-22T01:15:34;98864.59;;;11.01;66.38
59063;BME280;44851;45.648;9.004;2023-04-22T01:18:00;98869.38;;;11.06;65.68
59063;BME280;44851;45.648;9.004;2023-04-22T01:20:28;98861.28;;;11.09;66.43
59063;BME280;44851;45.648;9.004;2023-04-22T01:22:55;98861.28;;;11.09;66.49
59063;BME280;44851;45.648;9.004;2023-04-22T01:25:22;98866.19;;;11.12;66.49
59063;BME280;44851;45.648;9.004;2023-04-22T01:27:48;98862.59;;;11.13;66.34
59063;BME280;44851;45.648;9.004;2023-04-22T01:30:14;98859.88;;;11.15;66.13
59063;BME280;44851;45.648;9.004;2023-04-22T01:32:40;98870.97;;;11.17;66.26
59063;BME280;44851;45.648;9.004;2023-04-22T01:35:07;98857.09;;;11.16;66.18
59063;BME280;44851;45.648;9.004;2023-04-22T01:37:33;98868.06;;;11.20;66.58
59063;BME280;44851;45.648;9.004;2023-04-22T01:39:59;98858.75;;;11.17;65.26
59063;BME280;44851;45.648;9.004;2023-04-22T01:42:25;98867.44;;;11.08;65.95
59063;BME280;44851;45.648;9.004;2023-04-22T01:44:50;98867.06;;;11.03;66.24
59063;BME280;44851;45.648;9.004;2023-04-22T01:47:16;98867.31;;;11.09;66.76
59063;BME280;44851;45.648;9.004;2023-04-22T01:49:41;98867.06;;;11.03;66.36
59063;BME280;44851;45.648;9.004;2023-04-22T01:52:07;98865.13;;;11.05;66.70
59063;BME280;44851;45.648;9.004;2023-04-22T01:54:32;98862.84;;;10.92;66.08
59063;BME280;44851;45.648;9.004;2023-04-22T01:56:59;98860.69;;;10.88;66.22
59063;BME280;44851;45.648;9.004;2023-04-22T01:59:26;98860.69;;;10.88;66.64
59063;BME280;44851;45.648;9.004;2023-04-22T02:01:52;98872.53;;;10.82;66.91
59063;BME280;44851;45.648;9.004;2023-04-22T02:04:17;98877.75;;;10.82;67.07
59063;BME280;44851;45.648;9.004;2023-04-22T02:06:43;98874.59;;;10.78;66.93
59063;BME280;44851;45.648;9.004;2023-04-22T02:09:09;98868.03;;;10.74;66.17
59063;BME280;44851;45.648;9.004;2023-04-22T02:11:34;98862.91;;;10.82;66.33
59063;BME280;44851;45.648;9.004;2023-04-22T02:13:59;98865.22;;;10.85;66.66
59063;BME280;44851;45.648;9.004;2023-04-22T02:16:25;98867.31;;;10.82;65.98
59063;BME280;44851;45.648;9.004;2023-04-22T02:18:51;98865.75;;;10.89;66.64
59063;BME280;44851;45.648;9.004;2023-04-22T02:21:17;98880.75;;;10.87;66.60
59063;BME280;44851;45.648;9.004;2023-04-22T02:23:42;98875.97;;;10.82;66.27
59063;BME280;44851;45.648;9.004;2023-04-22T02:26:08;98869.38;;;10.78;66.14
59063;BME280;44851;45.648;9.004;2023-04-22T02:28:34;98878.28;;;10.76;66.56
59063;BME280;44851;45.648;9.004;2023-04-22T02:31:00;98876.00;;;10.73;67.08
59063;BME280;44851;45.648;9.004;2023-04-22T02:33:25;98880.78;;;10.68;66.47
59063;BME280;44851;45.648;9.004;2023-04-22T02:35:51;98878.16;;;10.68;67.07
59063;BME280;44851;45.648;9.004;2023-04-22T02:38:17;98884.47;;;10.65;67.31
59063;BME280;44851;45.648;9.004;2023-04-22T02:40:43;98876.16;;;10.71;67.23
59063;BME280;44851;45.648;9.004;2023-04-22T02:43:09;98877.94;;;10.61;66.42
59063;BME280;44851;45.648;9.004;2023-04-22T02:45:34;98879.97;;;10.67;66.39
59063;BME280;44851;45.648;9.004;2023-04-22T02:48:00;98883.66;;;10.65;66.91
59063;BME280;44851;45.648;9.004;2023-04-22T02:50:26;98881.47;;;10.60;66.49
59063;BME280;44851;45.648;9.004;2023-04-22T02:52:51;98883.66;;;10.65;67.03
59063;BME280;44851;45.648;9.004;2023-04-22T02:55:17;98879.16;;;10.57;66.51
59063;BME280;44851;45.648;9.004;2023-04-22T02:57:43;98890.25;;;10.59;67.19
59063;BME280;44851;45.648;9.004;2023-04-22T03:00:09;98885.47;;;10.54;66.80
59063;BME280;44851;45.648;9.004;2023-04-22T03:02:35;98894.28;;;10.44;67.07
59063;BME280;44851;45.648;9.004;2023-04-22T03:05:01;98889.19;;;10.52;67.64
59063;BME280;44851;45.648;9.004;2023-04-22T03:07:27;98881.53;;;10.50;67.51
59063;BME280;44851;45.648;9.004;2023-04-22T03:09:52;98880.66;;;10.59;67.67
59063;BME280;44851;45.648;9.004;2023-04-22T03:12:20;98890.25;;;10.59;67.94
59063;BME280;44851;45.648;9.004;2023-04-22T03:14:46;98881.25;;;10.44;67.10
59063;BME280;44851;45.648;9.004;2023-04-22T03:17:12;98875.63;;;10.48;67.76
59063;BME280;44851;45.648;9.004;2023-04-22T03:19:37;98886.44;;;10.53;68.00
59063;BME280;44851;45.648;9.004;2023-04-22T03:22:03;98889.38;;;10.41;67.34
59063;BME280;44851;45.648;9.004;2023-04-22T03:24:28;98877.72;;;10.35;67.01
59063;BME280;44851;45.648;9.004;2023-04-22T03:26:54;98884.03;;;10.32;67.30
59063;BME280;44851;45.648;9.004;2023-04-22T03:29:19;98870.72;;;10.35;68.06
59063;BME280;44851;45.648;9.004;2023-04-22T03:31:45;98881.72;;;10.29;67.53
59063;BME280;44851;45.648;9.004;2023-04-22T03:34:10;98877.75;;;10.25;67.70
59063;BME280;44851;45.648;9.004;2023-04-22T03:36:36;98876.91;;;10.34;68.14
59063;BME280;44851;45.648;9.004;2023-04-22T03:39:01;98876.09;;;10.34;68.58
59063;BME280;44851;45.648;9.004;2023-04-22T03:41:27;98877.34;;;10.20;67.49
59063;BME280;44851;45.648;9.004;2023-04-22T03:43:53;98878.56;;;10.16;67.87
59063;BME280;44851;45.648;9.004;2023-04-22T03:46:19;98870.09;;;10.14;68.11
59063;BME280;44851;45.648;9.004;2023-04-22T03:48:45;98875.84;;;10.18;68.57
59063;BME280;44851;45.648;9.004;2023-04-22T03:51:11;98873.94;;;10.10;67.51
59063;BME280;44851;45.648;9.004;2023-04-22T03:53:37;98873.94;;;10.10;68.32
59063;BME280;44851;45.648;9.004;2023-04-22T03:56:02;98873.94;;;10.10;68.67
59063;BME280;44851;45.648;9.004;2023-04-22T03:58:28;98879.69;;;10.04;68.60
59063;BME280;44851;45.648;9.004;2023-04-22T04:00:54;98876.25;;;10.13;68.53
59063;BME280;44851;45.648;9.004;2023-04-22T04:03:20;98876.25;;;10.13;69.13
59063;BME280;44851;45.648;9.004;2023-04-22T04:05:45;98874.59;;;10.12;68.05
59063;BME280;44851;45.648;9.004;2023-04-22T04:08:11;98879.94;;;10.11;68.57
59063;BME280;44851;45.648;9.004;2023-04-22T04:10:37;98868.72;;;10.10;68.38
59063;BME280;44851;45.648;9.004;2023-04-22T04:13:02;98870.09;;;10.04;68.47
59063;BME280;44851;45.648;9.004;2023-04-22T04:15:28;98873.81;;;10.02;68.16
59063;BME280;44851;45.648;9.004;2023-04-22T04:17:54;98871.06;;;9.94;68.19
59063;BME280;44851;45.648;9.004;2023-04-22T04:20:21;98863.00;;;9.97;68.68
59063;BME280;44851;45.648;9.004;2023-04-22T04:22:46;98858.59;;;10.07;68.80
59063;BME280;44851;45.648;9.004;2023-04-22T04:25:12;98863.25;;;10.13;68.92
59063;BME280;44851;45.648;9.004;2023-04-22T04:27:38;98860.75;;;10.12;68.07
59063;BME280;44851;45.648;9.004;2023-04-22T04:30:06;98867.47;;;10.14;68.30
59063;BME280;44851;45.648;9.004;2023-04-22T04:32:32;98869.78;;;10.17;68.66
59063;BME280;44851;45.648;9.004;2023-04-22T04:35:01;98857.47;;;10.09;68.64
59063;BME280;44851;45.648;9.004;2023-04-22T04:37:27;98864.63;;;9.98;67.61
59063;BME280;44851;45.648;9.004;2023-04-22T04:39:53;98867.78;;;9.92;68.32
59063;BME280;44851;45.648;9.004;2023-04-22T04:42:19;98869.03;;;9.88;68.67
59063;BME280;44851;45.648;9.004;2023-04-22T04:44:45;98872.28;;;9.90;68.54
59063;BME280;44851;45.648;9.004;2023-04-22T04:47:15;98874.38;;;9.86;68.17
59063;BME280;44851;45.648;9.004;2023-04-22T04:49:40;98874.22;;;9.88;68.27
59063;BME280;44851;45.648;9.004;2023-04-22T04:52:07;98872.03;;;9.83;67.92
59063;BME280;44851;45.648;9.004;2023-04-22T04:54:36;98877.25;;;9.93;68.89
59063;BME280;44851;45.648;9.004;2023-04-22T04:57:02;98883.81;;;9.87;68.79
59063;BME280;44851;45.648;9.004;2023-04-22T04:59:28;98885.72;;;9.85;68.64
59063;BME280;44851;45.648;9.004;2023-04-22T05:01:53;98895.59;;;9.81;69.48
59063;BME280;44851;45.648;9.004;2023-04-22T05:04:21;98909.28;;;9.83;68.96
59063;BME280;44851;45.648;9.004;2023-04-22T05:06:46;98907.50;;;9.74;68.44
59063;BME280;44851;45.648;9.004;2023-04-22T05:09:13;98909.59;;;9.80;69.00
59063;BME280;44851;45.648;9.004;2023-04-22T05:11:39;98900.41;;;9.76;69.12
59063;BME280;44851;45.648;9.004;2023-04-22T05:14:05;98906.81;;;9.72;68.53
59063;BME280;44851;45.648;9.004;2023-04-22T05:16:31;98903.00;;;9.76;68.31
59063;BME280;44851;45.648;9.004;2023-04-22T05:18:57;98908.75;;;9.80;69.29
59063;BME280;44851;45.648;9.004;2023-04-22T05:21:23;98898.63;;;9.77;68.68
59063;BME280;44851;45.648;9.004;2023-04-22T05:23:48;98897.25;;;9.82;68.80
59063;BME280;44851;45.648;9.004;2023-04-22T05:26:14;98900.53;;;9.85;68.71
59063;BME280;44851;45.648;9.004;2023-04-22T05:28:40;98904.09;;;9.83;68.58
59063;BME280;44851;45.648;9.004;2023-04-22T05:31:05;98908.63;;;9.81;68.88
59063;BME280;44851;45.648;9.004;2023-04-22T05:33:31;98919.16;;;9.90;69.81
59063;BME280;44851;45.648;9.004;2023-04-22T05:35:56;98917.25;;;9.92;68.95
59063;BME280;44851;45.648;9.004;2023-04-22T05:38:22;98925.47;;;9.97;69.42
59063;BME280;44851;45.648;9.004;2023-04-22T05:40:48;98916.97;;;9.95;69.53
59063;BME280;44851;45.648;9.004;2023-04-22T05:43:13;98919.97;;;10.00;69.27
59063;BME280;44851;45.648;9.004;2023-04-22T05:45:39;98903.81;;;10.06;69.59
59063;BME280;44851;45.648;9.004;2023-04-22T05:48:05;98907.63;;;10.12;69.03
59063;BME280;44851;45.648;9.004;2023-04-22T05:50:31;98920.25;;;10.16;69.25
59063;BME280;44851;45.648;9.004;2023-04-22T05:52:57;98913.94;;;10.28;69.03
59063;BME280;44851;45.648;9.004;2023-04-22T05:55:23;98920.22;;;10.35;68.99
59063;BME280;44851;45.648;9.004;2023-04-22T05:57:48;98917.19;;;10.50;69.41
59063;BME280;44851;45.648;9.004;2023-04-22T06:00:16;98915.81;;;10.55;68.56
59063;BME280;44851;45.648;9.004;2023-04-22T06:02:41;98917.41;;;10.66;69.25
59063;BME280;44851;45.648;9.004;2023-04-22T06:05:08;98920.41;;;10.81;69.02
59063;BME280;44851;45.648;9.004;2023-04-22T06:07:33;98915.84;;;10.93;68.90
59063;BME280;44851;45.648;9.004;2023-04-22T06:09:59;98909.34;;;10.97;68.42
59063;BME280;44851;45.648;9.004;2023-04-22T06:12:24;98904.94;;;11.07;69.01
59063;BME280;44851;45.648;9.004;2023-04-22T06:14:50;98906.94;;;11.13;68.75
59063;BME280;44851;45.648;9.004;2023-04-22T06:17:16;98918.31;;;11.22;68.63
59063;BME280;44851;45.648;9.004;2023-04-22T06:19:41;98914.41;;;11.35;68.43
59063;BME280;44851;45.648;9.004;2023-04-22T06:22:07;98921.72;;;11.50;67.76
59063;BME280;44851;45.648;9.004;2023-04-22T06:24:32;98918.81;;;11.53;68.42
59063;BME280;44851;45.648;9.004;2023-04-22T06:26:58;98930.19;;;11.61;68.59
59063;BME280;44851;45.648;9.004;2023-04-22T06:29:24;98921.22;;;11.64;67.66
59063;BME280;44851;45.648;9.004;2023-04-22T06:31:49;98926.06;;;11.77;67.73
59063;BME280;44851;45.648;9.004;2023-04-22T06:34:15;98926.91;;;11.95;67.75
59063;BME280;44851;45.648;9.004;2023-04-22T06:36:40;98925.88;;;12.06;66.46
59063;BME280;44851;45.648;9.004;2023-04-22T06:39:06;98926.47;;;12.17;66.78
59063;BME280;44851;45.648;9.004;2023-04-22T06:41:31;98923.69;;;12.37;67.08
59063;BME280;44851;45.648;9.004;2023-04-22T06:43:58;98924.97;;;12.59;66.72
59063;BME280;44851;45.648;9.004;2023-04-22T06:46:23;98930.22;;;12.67;65.85
59063;BME280;44851;45.648;9.004;2023-04-22T06:48:49;98938.50;;;12.80;65.49
59063;BME280;44851;45.648;9.004;2023-04-22T06:51:15;98929.13;;;13.04;65.18
59063;BME280;44851;45.648;9.004;2023-04-22T06:53:40;98938.56;;;13.23;66.08
59063;BME280;44851;45.648;9.004;2023-04-22T06:56:06;98928.97;;;13.39;65.12
59063;BME280;44851;45.648;9.004;2023-04-22T06:58:32;98938.81;;;13.54;65.94
59063;BME280;44851;45.648;9.004;2023-04-22T07:00:58;98943.44;;;13.68;64.80
59063;BME280;44851;45.648;9.004;2023-04-22T07:03:23;98943.13;;;13.71;64.90
59063;BME280;44851;45.648;9.004;2023-04-22T07:05:49;98948.03;;;13.66;65.61
59063;BME280;44851;45.648;9.004;2023-04-22T07:08:14;98951.28;;;13.60;65.13
59063;BME280;44851;45.648;9.004;2023-04-22T07:10:40;98951.09;;;13.61;64.72
59063;BME280;44851;45.648;9.004;2023-04-22T07:13:06;98951.63;;;13.65;65.15
59063;BME280;44851;45.648;9.004;2023-04-22T07:15:31;98950.94;;;13.63;64.56
59063;BME280;44851;45.648;9.004;2023-04-22T07:17:56;98953.25;;;13.74;65.72
59063;BME280;44851;45.648;9.004;2023-04-22T07:20:22;98952.31;;;13.83;65.01
59063;BME280;44851;45.648;9.004;2023-04-22T07:22:47;98955.25;;;13.88;66.33
59063;BME280;44851;45.648;9.004;2023-04-22T07:25:13;98947.72;;;13.93;65.92
59063;BME280;44851;45.648;9.004;2023-04-22T07:27:38;98955.94;;;13.98;64.92
59063;BME280;44851;45.648;9.004;2023-04-22T07:30:06;98952.97;;;14.10;64.82
59063;BME280;44851;45.648;9.004;2023-04-22T07:32:32;98946.09;;;14.09;64.73
59063;BME280;44851;45.648;9.004;2023-04-22T07:34:57;98946.78;;;14.19;65.20
59063;BME280;44851;45.648;9.004;2023-04-22T07:37:23;98939.09;;;14.34;64.67
59063;BME280;44851;45.648;9.004;2023-04-22T07:39:48;98945.16;;;14.50;64.28
59063;BME280;44851;45.648;9.004;2023-04-22T07:42:14;98948.75;;;14.66;63.39
59063;BME280;44851;45.648;9.004;2023-04-22T07:44:39;98941.66;;;14.83;61.47
59063;BME280;44851;45.648;9.004;2023-04-22T07:47:05;98945.09;;;14.75;58.43
59063;BME280;44851;45.648;9.004;2023-04-22T07:49:32;98946.03;;;14.90;59.76
59063;BME280;44851;45.648;9.004;2023-04-22T07:51:58;98938.53;;;14.87;58.51
59063;BME280;44851;45.648;9.004;2023-04-22T07:54:23;98933.59;;;14.92;60.90
59063;BME280;44851;45.648;9.004;2023-04-22T07:56:48;98943.72;;;15.03;64.07
59063;BME280;44851;45.648;9.004;2023-04-22T07:59:14;98943.06;;;15.01;62.13
59063;BME280;44851;45.648;9.004;2023-04-22T08:01:39;98939.59;;;15.09;57.42
59063;BME280;44851;45.648;9.004;2023-04-22T08:04:05;98935.78;;;15.20;57.77
59063;BME280;44851;45.648;9.004;2023-04-22T08:06:31;98946.25;;;15.36;56.11
59063;BME280;44851;45.648;9.004;2023-04-22T08:08:57;98944.91;;;15.40;54.55
59063;BME280;44851;45.648;9.004;2023-04-22T08:11:22;98940.28;;;15.42;56.77
59063;BME280;44851;45.648;9.004;2023-04-22T08:13:48;98942.91;;;15.50;58.09
59063;BME280;44851;45.648;9.004;2023-04-22T08:16:13;98937.66;;;15.50;58.50
59063;BME280;44851;45.648;9.004;2023-04-22T08:18:38;98939.50;;;15.65;59.11
59063;BME280;44851;45.648;9.004;2023-04-22T08:21:04;98940.84;;;15.61;54.65
59063;BME280;44851;45.648;9.004;2023-04-22T08:23:30;98948.06;;;15.67;58.24
59063;BME280;44851;45.648;9.004;2023-04-22T08:25:56;98936.94;;;15.56;56.93
59063;BME280;44851;45.648;9.004;2023-04-22T08:28:22;98945.38;;;15.75;56.81
59063;BME280;44851;45.648;9.004;2023-04-22T08:30:47;98942.53;;;15.85;56.92
59063;BME280;44851;45.648;9.004;2023-04-22T08:33:13;98938.69;;;15.64;54.32
59063;BME280;44851;45.648;9.004;2023-04-22T08:35:39;98938.16;;;15.77;56.14
59063;BME280;44851;45.648;9.004;2023-04-22T08:38:04;98931.06;;;15.77;52.54
59063;BME280;44851;45.648;9.004;2023-04-22T08:40:30;98938.72;;;15.87;54.27
59063;BME280;44851;45.648;9.004;2023-04-22T08:42:56;98938.16;;;16.00;53.63
59063;BME280;44851;45.648;9.004;2023-04-22T08:45:21;98940.84;;;16.15;53.74
59063;BME280;44851;45.648;9.004;2023-04-22T08:47:51;98940.09;;;16.44;55.86
59063;BME280;44851;45.648;9.004;2023-04-22T08:50:19;98937.78;;;16.64;57.14
59063;BME280;44851;45.648;9.004;2023-04-22T08:52:45;98939.31;;;16.73;54.48
59063;BME280;44851;45.648;9.004;2023-04-22T08:55:10;98933.34;;;16.79;55.12
59063;BME280;44851;45.648;9.004;2023-04-22T08:57:37;98931.56;;;16.94;53.10
59063;BME280;44851;45.648;9.004;2023-04-22T09:00:05;98923.38;;;17.19;56.83
59063;BME280;44851;45.648;9.004;2023-04-22T09:02:31;98933.72;;;17.05;50.41
59063;BME280;44851;45.648;9.004;2023-04-22T09:04:57;98930.09;;;17.06;50.80
59063;BME280;44851;45.648;9.004;2023-04-22T09:07:29;98921.28;;;17.29;52.73
59063;BME280;44851;45.648;9.004;2023-04-22T09:09:56;98922.38;;;17.05;50.28
59063;BME280;44851;45.648;9.004;2023-04-22T09:12:22;98922.28;;;17.13;54.12
59063;BME280;44851;45.648;9.004;2023-04-22T09:14:48;98919.56;;;17.06;51.32
59063;BME280;44851;45.648;9.004;2023-04-22T09:17:17;98915.13;;;17.22;51.93
59063;BME280;44851;45.648;9.004;2023-04-22T09:19:56;98912.56;;;17.13;48.40
59063;BME280;44851;45.648;9.004;2023-04-22T09:22:23;98915.19;;;17.13;48.65
59063;BME280;44851;45.648;9.004;2023-04-22T09:24:50;98917.38;;;17.25;50.15
59063;BME280;44851;45.648;9.004;2023-04-22T09:27:18;98908.50;;;17.11;49.35
59063;BME280;44851;45.648;9.004;2023-04-22T09:29:48;98912.28;;;17.08;48.66
59063;BME280;44851;45.648;9.004;2023-04-22T09:32:15;98915.03;;;17.00;49.28
59063;BME280;44851;45.648;9.004;2023-04-22T09:34:51;98909.00;;;17.06;48.62
59063;BME280;44851;45.648;9.004;2023-04-22T09:37:26;98910.13;;;17.12;50.93
59063;BME280;44851;45.648;9.004;2023-04-22T09:39:52;98911.66;;;17.21;49.13
59063;BME280;44851;45.648;9.004;2023-04-22T09:42:19;98909.44;;;17.39;48.67
59063;BME280;44851;45.648;9.004;2023-04-22T09:44:47;98910.53;;;17.88;51.23
59063;BME280;44851;45.648;9.004;2023-04-22T09:47:13;98912.38;;;18.09;49.35
59063;BME280;44851;45.648;9.004;2023-04-22T09:49:38;98901.06;;;18.43;52.87
59063;BME280;44851;45.648;9.004;2023-04-22T09:52:04;98907.25;;;18.50;48.54
59063;BME280;44851;45.648;9.004;2023-04-22T09:54:30;98899.16;;;18.58;45.22
59063;BME280;44851;45.648;9.004;2023-04-22T09:56:56;98899.63;;;18.68;46.15
59063;BME280;44851;45.648;9.004;2023-04-22T09:59:23;98892.69;;;18.95;49.97
59063;BME280;44851;45.648;9.004;2023-04-22T10:01:52;98896.16;;;18.96;46.69
59063;BME280;44851;45.648;9.004;2023-04-22T10:04:18;98889.66;;;18.92;43.02
59063;BME280;44851;45.648;9.004;2023-04-22T10:06:52;98887.25;;;19.04;46.24
59063;BME280;44851;45.648;9.004;2023-04-22T10:09:24;98884.84;;;19.09;43.73
59063;BME280;44851;45.648;9.004;2023-04-22T10:11:51;98895.19;;;19.65;48.73
59063;BME280;44851;45.648;9.004;2023-04-22T10:14:21;98879.34;;;19.71;46.83
59063;BME280;44851;45.648;9.004;2023-04-22T10:16:47;98882.22;;;19.77;45.52
59063;BME280;44851;45.648;9.004;2023-04-22T10:19:20;98885.09;;;20.15;49.29
59063;BME280;44851;45.648;9.004;2023-04-22T10:21:48;98886.28;;;20.19;44.85
59063;BME280;44851;45.648;9.004;2023-04-22T10:24:17;98880.56;;;19.69;41.00
59063;BME280;44851;45.648;9.004;2023-04-22T10:29:22;98880.16;;;19.79;41.49
59063;BME280;44851;45.648;9.004;2023-04-22T10:32:05;98874.47;;;19.68;39.96
59063;BME280;44851;45.648;9.004;2023-04-22T10:34:48;98872.63;;;19.76;44.22
59063;BME280;44851;45.648;9.004;2023-04-22T10:37:17;98873.44;;;19.69;42.41
59063;BME280;44851;45.648;9.004;2023-04-22T10:40:07;98874.69;;;20.00;41.01
59063;BME280;44851;45.648;9.004;2023-04-22T10:42:33;98874.09;;;19.98;39.78
59063;BME280;44851;45.648;9.004;2023-04-22T10:45:00;98872.84;;;20.27;41.06
59063;BME280;44851;45.648;9.004;2023-04-22T10:47:31;98870.41;;;20.39;43.76
59063;BME280;44851;45.648;9.004;2023-04-22T10:50:32;98861.03;;;20.49;43.13
59063;BME280;44851;45.648;9.004;2023-04-22T10:53:00;98857.28;;;20.77;45.69
59063;BME280;44851;45.648;9.004;2023-04-22T10:55:51;98857.94;;;20.72;42.48
59063;BME280;44851;45.648;9.004;2023-04-22T10:58:19;98850.63;;;20.68;40.06
59063;BME280;44851;45.648;9.004;2023-04-22T11:00:44;98852.44;;;20.67;38.70
59063;BME280;44851;45.648;9.004;2023-04-22T11:03:13;98852.06;;;20.57;37.88
59063;BME280;44851;45.648;9.004;2023-04-22T11:05:39;98847.91;;;20.81;37.88
59063;BME280;44851;45.648;9.004;2023-04-22T11:08:18;98849.50;;;20.95;36.93
59063;BME280;44851;45.648;9.004;2023-04-22T11:10:51;98845.25;;;21.33;39.55
59063;BME280;44851;45.648;9.004;2023-04-22T11:13:21;98839.59;;;21.22;34.72
59063;BME280;44851;45.648;9.004;2023-04-22T11:15:48;98837.03;;;21.41;38.53
59063;BME280;44851;45.648;9.004;2023-04-22T11:18:22;98836.22;;;21.40;41.53
59063;BME280;44851;45.648;9.004;2023-04-22T11:20:48;98838.25;;;21.45;35.88
59063;BME280;44851;45.648;9.004;2023-04-22T11:23:26;98837.50;;;21.38;34.98
59063;BME280;44851;45.648;9.004;2023-04-22T11:25:56;98829.41;;;21.19;35.98
59063;BME280;44851;45.648;9.004;2023-04-22T11:28:22;98835.41;;;21.40;37.70
59063;BME280;44851;45.648;9.004;2023-04-22T11:30:48;98832.09;;;21.51;37.70
59063;BME280;44851;45.648;9.004;2023-04-22T11:33:14;98833.34;;;21.48;34.97
59063;BME280;44851;45.648;9.004;2023-04-22T11:35:40;98837.44;;;21.44;35.89
59063;BME280;44851;45.648;9.004;2023-04-22T11:38:07;98833.69;;;21.59;35.46
59063;BME280;44851;45.648;9.004;2023-04-22T11:40:35;98831.22;;;21.57;34.33
59063;BME280;44851;45.648;9.004;2023-04-22T11:43:02;98826.88;;;21.69;34.07
59063;BME280;44851;45.648;9.004;2023-04-22T11:45:30;98827.47;;;21.71;34.78
59063;BME280;44851;45.648;9.004;2023-04-22T11:47:56;98822.25;;;21.58;34.52
59063;BME280;44851;45.648;9.004;2023-04-22T11:50:25;98823.41;;;21.69;36.00
59063;BME280;44851;45.648;9.004;2023-04-22T11:52:59;98820.41;;;21.84;36.58
59063;BME280;44851;45.648;9.004;2023-04-22T11:55:29;98814.56;;;22.06;36.76
59063;BME280;44851;45.648;9.004;2023-04-22T11:57:59;98808.59;;;22.11;34.32
59063;BME280;44851;45.648;9.004;2023-04-22T12:00:32;98807.06;;;22.40;37.65
59063;BME280;44851;45.648;9.004;2023-04-22T12:03:00;98799.69;;;22.24;33.78
59063;BME280;44851;45.648;9.004;2023-04-22T12:05:34;98801.59;;;22.35;35.21
59063;BME280;44851;45.648;9.004;2023-04-22T12:08:02;98794.75;;;22.27;35.53
59063;BME280;44851;45.648;9.004;2023-04-22T12:10:28;98796.06;;;22.55;35.06
59063;BME280;44851;45.648;9.004;2023-04-22T12:12:54;98794.84;;;22.57;34.97
59063;BME280;44851;45.648;9.004;2023-04-22T12:15:19;98792.41;;;22.38;36.73
59063;BME280;44851;45.648;9.004;2023-04-22T12:17:44;98782.75;;;22.00;35.15
59063;BME280;44851;45.648;9.004;2023-04-22T12:20:11;98788.31;;;22.17;37.39
59063;BME280;44851;45.648;9.004;2023-04-22T12:22:37;98789.03;;;22.05;34.31
59063;BME280;44851;45.648;9.004;2023-04-22T12:25:03;98786.16;;;22.25;36.90
59063;BME280;44851;45.648;9.004;2023-04-22T12:27:29;98774.00;;;22.36;35.37
59063;BME280;44851;45.648;9.004;2023-04-22T12:29:56;98783.50;;;22.25;33.85
59063;BME280;44851;45.648;9.004;2023-04-22T12:32:24;98787.34;;;22.29;35.82
59063;BME280;44851;45.648;9.004;2023-04-22T12:34:50;98783.66;;;22.30;35.12
59063;BME280;44851;45.648;9.004;2023-04-22T12:37:16;98789.88;;;22.24;35.91
59063;BME280;44851;45.648;9.004;2023-04-22T12:39:43;98782.75;;;22.00;34.88
59063;BME280;44851;45.648;9.004;2023-04-22T12:42:09;98773.88;;;21.88;35.63
59063;BME280;44851;45.648;9.004;2023-04-22T12:44:35;98777.94;;;21.65;36.07
59063;BME280;44851;45.648;9.004;2023-04-22T12:47:01;98773.38;;;21.47;37.78
59063;BME280;44851;45.648;9.004;2023-04-22T12:49:26;98768.88;;;21.48;36.35
59063;BME280;44851;45.648;9.004;2023-04-22T12:51:52;98768.09;;;21.41;37.43
59063;BME280;44851;45.648;9.004;2023-04-22T12:54:18;98767.00;;;21.23;36.11
59063;BME280;44851;45.648;9.004;2023-04-22T12:56:45;98768.44;;;21.51;36.26
59063;BME280;44851;45.648;9.004;2023-04-22T12:59:11;98758.81;;;21.81;35.92